createdAt,value
2023-09-03T00:01:40.538Z,94.53
2023-09-03T00:04:07.457Z,94.62
2023-09-03T00:06:34.480Z,94.68
2023-09-03T00:09:01.597Z,94.79
2023-09-03T00:11:28.527Z,95.01
2023-09-03T00:13:55.556Z,95.10
2023-09-03T00:16:22.531Z,95.24
2023-09-03T00:18:49.335Z,95.30
2023-09-03T00:21:16.191Z,95.28
2023-09-03T00:23:42.934Z,95.21
2023-09-03T00:26:17.302Z,95.23
2023-09-03T00:28:44.010Z,95.10
2023-09-03T00:31:11.203Z,95.23
2023-09-03T00:33:38.931Z,95.04
2023-09-03T00:36:06.969Z,95.22
2023-09-03T00:38:33.789Z,95.54
2023-09-03T00:41:00.948Z,95.33
2023-09-03T00:43:28.664Z,95.56
2023-09-03T00:45:55.512Z,95.77
2023-09-03T00:48:25.245Z,95.87
2023-09-03T00:50:53.326Z,95.80
2023-09-03T00:53:21.976Z,95.52
2023-09-03T00:55:49.053Z,95.68
2023-09-03T00:58:16.276Z,95.75
2023-09-03T01:00:43.319Z,95.95
2023-09-03T01:03:10.438Z,96.01
2023-09-03T01:05:37.399Z,96.09
2023-09-03T01:08:04.753Z,96.03
2023-09-03T01:10:39.268Z,95.78
2023-09-03T01:13:47.122Z,95.75
2023-09-03T01:16:22.932Z,95.93
2023-09-03T01:18:50.335Z,95.86
2023-09-03T01:21:50.793Z,95.91
2023-09-03T01:24:45.665Z,95.98
2023-09-03T01:27:26.067Z,95.86
2023-09-03T01:29:53.905Z,95.81
2023-09-03T01:32:22.717Z,95.77
2023-09-03T01:34:51.520Z,95.78
2023-09-03T01:37:18.525Z,95.91
2023-09-03T01:39:46.947Z,95.96
2023-09-03T01:42:13.757Z,96.08
2023-09-03T01:44:40.773Z,96.05
2023-09-03T01:47:37.726Z,96.27
2023-09-03T01:50:19.469Z,96.25
2023-09-03T01:53:03.918Z,96.40
2023-09-03T01:55:35.276Z,96.43
2023-09-03T01:58:06.668Z,96.40
2023-09-03T02:00:35.102Z,96.49
2023-09-03T02:03:02.951Z,96.63
2023-09-03T02:05:30.263Z,96.68
2023-09-03T02:07:57.259Z,96.80
2023-09-03T02:10:24.189Z,96.64
2023-09-03T02:12:51.272Z,96.82
2023-09-03T02:15:18.030Z,96.59
2023-09-03T02:17:44.828Z,96.58
2023-09-03T02:20:12.340Z,96.77
2023-09-03T02:22:39.252Z,96.66
2023-09-03T02:25:07.007Z,96.66
2023-09-03T02:27:33.774Z,96.77
2023-09-03T02:30:00.505Z,96.70
2023-09-03T02:32:27.374Z,96.43
2023-09-03T02:34:54.252Z,96.27
2023-09-03T02:37:21.076Z,96.22
2023-09-03T02:39:48.093Z,96.40
2023-09-03T02:42:14.929Z,96.48
2023-09-03T02:44:41.756Z,96.24
2023-09-03T02:47:08.496Z,96.70
2023-09-03T02:49:35.924Z,96.65
2023-09-03T02:52:03.518Z,96.54
2023-09-03T02:54:30.368Z,96.53
2023-09-03T02:56:57.106Z,96.86
2023-09-03T02:59:23.910Z,96.87
2023-09-03T03:01:50.752Z,96.90
2023-09-03T03:04:17.688Z,96.30
2023-09-03T03:06:44.410Z,96.45
2023-09-03T03:09:11.350Z,96.71
2023-09-03T03:11:38.258Z,96.88
2023-09-03T03:14:05.383Z,96.94
2023-09-03T03:16:32.622Z,96.99
2023-09-03T03:18:59.611Z,97.29
2023-09-03T03:21:26.375Z,97.22
2023-09-03T03:23:53.601Z,97.32
2023-09-03T03:26:20.947Z,97.22
2023-09-03T03:28:48.259Z,97.09
2023-09-03T03:31:17.095Z,96.94
2023-09-03T03:33:45.468Z,96.81
2023-09-03T03:36:14.628Z,96.79
2023-09-03T03:38:41.673Z,97.02
2023-09-03T03:41:16.223Z,97.24
2023-09-03T03:43:49.509Z,97.49
2023-09-03T03:46:19.008Z,97.63
2023-09-03T03:48:47.171Z,97.47
2023-09-03T03:51:14.415Z,97.65
2023-09-03T03:53:42.224Z,97.78
2023-09-03T03:56:09.956Z,97.71
2023-09-03T03:58:38.858Z,97.63
2023-09-03T04:01:19.773Z,97.41
2023-09-03T04:03:48.464Z,97.28
2023-09-03T04:06:15.990Z,97.18
2023-09-03T04:08:45.232Z,97.16
2023-09-03T04:11:18.173Z,97.09
2023-09-03T04:13:46.076Z,97.59
2023-09-03T04:16:18.015Z,97.79
2023-09-03T04:18:45.824Z,97.63
2023-09-03T04:21:13.094Z,97.64
2023-09-03T04:23:40.115Z,97.25
2023-09-03T04:26:07.301Z,97.25
2023-09-03T04:28:34.092Z,97.32
2023-09-03T04:31:02.269Z,97.17
2023-09-03T04:33:29.364Z,97.09
2023-09-03T04:35:58.051Z,97.03
2023-09-03T04:38:25.894Z,96.96
2023-09-03T04:40:53.071Z,96.71
2023-09-03T04:43:20.070Z,96.85
2023-09-03T04:45:50.582Z,96.94
2023-09-03T04:48:18.683Z,97.09
2023-09-03T04:50:46.000Z,97.09
2023-09-03T04:53:15.952Z,97.01
2023-09-03T04:55:43.289Z,96.99
2023-09-03T04:58:10.329Z,97.22
2023-09-03T05:00:37.800Z,97.54
2023-09-03T05:03:06.591Z,97.59
2023-09-03T05:05:43.529Z,97.76
2023-09-03T05:08:10.864Z,97.75
2023-09-03T05:10:41.168Z,97.71
2023-09-03T05:13:08.074Z,97.65
2023-09-03T05:15:35.488Z,97.45
2023-09-03T05:18:03.163Z,97.32
2023-09-03T05:20:30.048Z,97.07
2023-09-03T05:22:56.828Z,97.02
2023-09-03T05:25:24.003Z,97.01
2023-09-03T05:27:50.872Z,96.50
2023-09-03T05:30:17.723Z,96.79
2023-09-03T05:32:44.669Z,97.01
2023-09-03T05:35:11.616Z,96.91
2023-09-03T05:37:38.490Z,96.59
2023-09-03T05:40:06.348Z,96.56
2023-09-03T05:42:33.275Z,96.38
2023-09-03T05:45:00.750Z,96.56
2023-09-03T05:47:27.779Z,96.32
2023-09-03T05:49:56.740Z,96.40
2023-09-03T05:52:23.973Z,96.47
2023-09-03T05:54:51.619Z,95.98
2023-09-03T05:57:22.250Z,96.02
2023-09-03T05:59:52.196Z,96.07
2023-09-03T06:02:19.313Z,96.32
2023-09-03T06:04:46.600Z,96.35
2023-09-03T06:07:14.367Z,96.29
2023-09-03T06:09:41.668Z,96.05
2023-09-03T06:12:08.831Z,96.85
2023-09-03T06:14:37.045Z,96.85
2023-09-03T06:17:05.792Z,97.13
2023-09-03T06:19:32.715Z,97.28
2023-09-03T06:21:59.672Z,96.94
2023-09-03T06:24:29.470Z,97.00
2023-09-03T06:26:57.818Z,96.62
2023-09-03T06:33:41.132Z,95.84
2023-09-03T06:36:07.998Z,95.76
2023-09-03T06:38:34.845Z,96.01
2023-09-03T06:41:01.846Z,95.63
2023-09-03T06:43:28.665Z,95.19
2023-09-03T06:45:55.450Z,96.14
2023-09-03T06:48:22.621Z,96.18
2023-09-03T06:50:49.977Z,96.44
2023-09-03T06:53:16.819Z,96.16
2023-09-03T06:55:47.143Z,95.65
2023-09-03T06:58:14.341Z,95.91
2023-09-03T07:00:41.156Z,94.65
2023-09-03T07:03:08.001Z,93.73
2023-09-03T07:05:34.797Z,93.39
2023-09-03T07:08:01.626Z,93.56
2023-09-03T07:10:28.573Z,93.22
2023-09-03T07:12:56.690Z,93.23
2023-09-03T07:15:23.589Z,94.38
2023-09-03T07:17:50.399Z,94.44
2023-09-03T07:20:17.486Z,94.19
2023-09-03T07:22:44.215Z,94.73
2023-09-03T07:25:11.425Z,94.15
2023-09-03T07:27:41.701Z,93.73
2023-09-03T07:30:10.120Z,93.28
2023-09-03T07:32:38.568Z,92.74
2023-09-03T07:35:07.889Z,92.35
2023-09-03T07:37:34.918Z,92.26
2023-09-03T07:40:01.714Z,92.71
2023-09-03T07:42:28.912Z,92.85
2023-09-03T07:44:55.674Z,93.23
2023-09-03T07:47:22.678Z,92.26
2023-09-03T07:49:49.989Z,93.13
2023-09-03T07:52:17.635Z,93.45
2023-09-03T07:54:44.470Z,93.32
2023-09-03T07:57:11.842Z,92.86
2023-09-03T07:59:39.992Z,93.85
2023-09-03T08:02:07.301Z,92.83
2023-09-03T08:04:34.106Z,92.49
2023-09-03T08:07:00.932Z,93.26
2023-09-03T08:09:28.541Z,92.95
2023-09-03T08:11:55.285Z,93.36
2023-09-03T08:14:23.991Z,93.27
2023-09-03T08:16:50.993Z,91.47
2023-09-03T08:19:18.064Z,90.85
2023-09-03T08:21:46.186Z,90.84
2023-09-03T08:24:13.058Z,90.73
2023-09-03T08:26:40.040Z,90.19
2023-09-03T08:29:06.993Z,90.11
2023-09-03T08:31:34.209Z,88.81
2023-09-03T08:34:03.381Z,88.32
2023-09-03T08:36:30.204Z,86.82
2023-09-03T08:38:57.021Z,85.29
2023-09-03T08:41:25.101Z,83.97
2023-09-03T08:43:56.332Z,84.15
2023-09-03T08:46:26.943Z,84.58
2023-09-03T08:48:55.680Z,85.10
2023-09-03T08:51:22.850Z,84.29
2023-09-03T08:53:51.851Z,83.70
2023-09-03T08:56:19.226Z,82.16
2023-09-03T08:58:45.995Z,82.66
2023-09-03T09:01:15.132Z,82.64
2023-09-03T09:03:43.403Z,81.61
2023-09-03T09:06:11.041Z,80.72
2023-09-03T09:08:39.137Z,78.65
2023-09-03T09:11:12.125Z,78.60
2023-09-03T09:13:43.200Z,80.00
2023-09-03T09:16:10.264Z,79.40
2023-09-03T09:18:37.015Z,78.73
2023-09-03T09:21:04.236Z,78.66
2023-09-03T09:23:31.262Z,78.33
2023-09-03T09:26:00.308Z,78.12
2023-09-03T09:28:27.600Z,75.91
2023-09-03T09:30:56.079Z,76.30
2023-09-03T09:33:23.829Z,75.57
2023-09-03T09:35:51.267Z,73.52
2023-09-03T09:38:19.452Z,73.66
2023-09-03T09:40:46.610Z,72.21
2023-09-03T09:43:13.454Z,72.66
2023-09-03T09:45:52.569Z,71.67
2023-09-03T09:48:19.544Z,69.28
2023-09-03T09:50:48.476Z,70.73
2023-09-03T09:53:28.464Z,68.86
2023-09-03T09:56:09.349Z,70.05
2023-09-03T09:58:40.860Z,69.11
2023-09-03T10:01:09.948Z,68.21
2023-09-03T10:03:48.055Z,66.52
2023-09-03T10:06:19.660Z,66.46
2023-09-03T10:08:51.011Z,66.36
2023-09-03T10:11:19.599Z,68.84
2023-09-03T10:13:48.790Z,65.48
2023-09-03T10:16:18.719Z,65.07
2023-09-03T10:18:50.209Z,65.02
2023-09-03T10:21:33.848Z,66.78
2023-09-03T10:24:14.642Z,65.72
2023-09-03T10:26:52.373Z,65.37
2023-09-03T10:29:22.914Z,66.92
2023-09-03T10:31:51.842Z,65.87
2023-09-03T10:34:19.334Z,66.84
2023-09-03T10:37:07.699Z,63.42
2023-09-03T10:39:39.754Z,63.24
2023-09-03T10:42:25.183Z,64.71
2023-09-03T10:44:53.621Z,66.71
2023-09-03T10:47:20.769Z,62.83
2023-09-03T10:49:53.343Z,60.32
2023-09-03T10:52:33.063Z,56.57
2023-09-03T10:55:20.554Z,56.17
2023-09-03T10:57:49.229Z,55.72
2023-09-03T11:00:22.836Z,59.06
2023-09-03T11:02:51.146Z,57.31
2023-09-03T11:05:27.885Z,56.49
2023-09-03T11:08:32.763Z,55.91
2023-09-03T11:11:00.052Z,56.29
2023-09-03T11:13:38.468Z,54.53
2023-09-03T11:16:10.071Z,53.25
2023-09-03T11:18:38.019Z,53.23
2023-09-03T11:21:05.458Z,53.62
2023-09-03T11:23:36.129Z,55.21
2023-09-03T11:26:04.955Z,52.84
2023-09-03T11:28:37.802Z,54.35
2023-09-03T11:31:05.196Z,53.14
2023-09-03T11:33:32.433Z,53.71
2023-09-03T11:36:01.462Z,51.82
2023-09-03T11:38:28.776Z,50.02
2023-09-03T11:41:00.443Z,50.70
2023-09-03T11:43:30.377Z,50.82
2023-09-03T11:45:57.794Z,52.20
2023-09-03T11:48:29.067Z,51.66
2023-09-03T11:51:05.424Z,54.29
2023-09-03T11:53:44.476Z,55.22
2023-09-03T11:56:15.107Z,53.48
2023-09-03T11:58:43.243Z,52.16
2023-09-03T12:01:10.922Z,53.53
2023-09-03T12:03:40.812Z,54.13
2023-09-03T12:06:08.061Z,54.06
2023-09-03T12:08:35.419Z,53.00
2023-09-03T12:11:02.308Z,52.52
2023-09-03T12:13:34.015Z,52.73
2023-09-03T12:16:07.941Z,54.15
2023-09-03T12:18:35.990Z,54.31
2023-09-03T12:21:04.061Z,52.58
2023-09-03T12:23:30.946Z,52.63
2023-09-03T12:25:57.739Z,52.92
2023-09-03T12:28:36.262Z,53.56
2023-09-03T12:31:04.897Z,54.50
2023-09-03T12:33:34.581Z,54.83
2023-09-03T12:36:10.104Z,54.35
2023-09-03T12:38:49.369Z,54.18
2023-09-03T12:41:16.422Z,55.32
2023-09-03T12:43:45.214Z,56.30
2023-09-03T12:46:12.611Z,56.00
2023-09-03T12:48:39.693Z,56.52
2023-09-03T12:51:06.525Z,56.88
2023-09-03T12:53:33.351Z,56.47
2023-09-03T12:56:00.669Z,56.66
2023-09-03T12:58:27.395Z,57.75
2023-09-03T13:00:54.729Z,56.77
2023-09-03T13:03:22.021Z,55.53
2023-09-03T13:05:49.104Z,55.97
2023-09-03T13:08:16.898Z,56.28
2023-09-03T13:10:43.945Z,56.87
2023-09-03T13:13:13.324Z,57.56
2023-09-03T13:15:41.002Z,57.57
2023-09-03T13:18:08.114Z,57.47
2023-09-03T13:20:35.633Z,57.46
2023-09-03T13:23:02.606Z,58.54
2023-09-03T13:25:34.931Z,58.11
2023-09-03T13:28:02.672Z,58.56
2023-09-03T13:30:29.386Z,58.94
2023-09-03T13:32:56.359Z,59.61
2023-09-03T13:35:23.703Z,59.10
2023-09-03T13:37:50.458Z,59.05
2023-09-03T13:40:17.358Z,58.71
2023-09-03T13:42:44.119Z,57.44
2023-09-03T13:45:11.401Z,56.49
2023-09-03T13:47:38.325Z,57.37
2023-09-03T13:50:07.268Z,56.39
2023-09-03T13:52:34.654Z,56.12
2023-09-03T13:55:01.499Z,54.14
2023-09-03T13:57:28.533Z,54.72
2023-09-03T13:59:57.925Z,55.93
2023-09-03T14:02:26.916Z,55.21
2023-09-03T14:04:53.725Z,55.29
2023-09-03T14:07:23.346Z,54.63
2023-09-03T14:09:53.632Z,55.23
2023-09-03T14:12:20.548Z,55.23
2023-09-03T14:14:47.366Z,55.36
2023-09-03T14:17:14.131Z,54.69
2023-09-03T14:19:40.935Z,54.39
2023-09-03T14:22:07.783Z,54.88
2023-09-03T14:24:36.407Z,54.39
2023-09-03T14:27:05.904Z,54.69
2023-09-03T14:29:33.688Z,54.58
2023-09-03T14:32:01.941Z,55.79
2023-09-03T14:34:28.804Z,55.89
2023-09-03T14:36:55.734Z,55.07
2023-09-03T14:39:23.739Z,55.19
2023-09-03T14:41:51.007Z,54.66
2023-09-03T14:44:17.886Z,53.78
2023-09-03T14:46:45.302Z,52.67
2023-09-03T14:49:12.539Z,53.92
2023-09-03T14:51:39.529Z,54.35
2023-09-03T14:54:06.599Z,54.30
2023-09-03T14:56:33.333Z,52.81
2023-09-03T14:59:03.818Z,52.80
2023-09-03T15:01:30.782Z,52.89
2023-09-03T15:03:57.610Z,52.68
2023-09-03T15:06:24.614Z,52.21
2023-09-03T15:08:52.027Z,52.93
2023-09-03T15:11:19.588Z,53.61
2023-09-03T15:13:54.095Z,51.76
2023-09-03T15:16:21.260Z,51.87
2023-09-03T15:18:48.129Z,51.28
2023-09-03T15:21:18.059Z,52.17
2023-09-03T15:23:44.828Z,53.54
2023-09-03T15:26:11.705Z,54.71
2023-09-03T15:28:38.650Z,53.36
2023-09-03T15:31:05.468Z,53.15
2023-09-03T15:33:32.290Z,53.42
2023-09-03T15:35:59.137Z,54.14
2023-09-03T15:38:25.850Z,53.54
2023-09-03T15:40:52.847Z,53.21
2023-09-03T15:43:22.613Z,54.64
2023-09-03T15:45:52.515Z,54.87
2023-09-03T15:48:20.430Z,54.79
2023-09-03T15:50:47.903Z,54.92
2023-09-03T15:53:15.090Z,55.09
2023-09-03T15:55:42.388Z,56.05
2023-09-03T15:58:10.759Z,55.54
2023-09-03T16:00:39.800Z,56.58
2023-09-03T16:03:08.321Z,56.69
2023-09-03T16:05:35.459Z,56.37
2023-09-03T16:08:02.917Z,55.95
2023-09-03T16:10:29.841Z,56.32
2023-09-03T16:12:59.679Z,56.18
2023-09-03T16:15:27.296Z,56.21
2023-09-03T16:17:55.493Z,55.58
2023-09-03T16:20:23.186Z,55.44
2023-09-03T16:22:50.273Z,56.19
2023-09-03T16:25:17.277Z,55.97
2023-09-03T16:27:44.147Z,56.52
2023-09-03T16:30:11.529Z,56.70
2023-09-03T16:32:38.763Z,57.08
2023-09-03T16:35:06.036Z,56.94
2023-09-03T16:37:32.942Z,56.79
2023-09-03T16:39:59.792Z,57.09
2023-09-03T16:42:26.730Z,57.48
2023-09-03T16:44:57.282Z,57.90
2023-09-03T16:47:26.359Z,58.48
2023-09-03T16:49:53.841Z,58.84
2023-09-03T16:52:20.992Z,59.23
2023-09-03T16:54:47.730Z,60.18
2023-09-03T16:57:14.550Z,60.67
2023-09-03T16:59:42.162Z,60.64
2023-09-03T17:02:13.486Z,60.73
2023-09-03T17:04:42.781Z,61.03
2023-09-03T17:07:10.785Z,61.19
2023-09-03T17:09:37.970Z,61.69
2023-09-03T17:12:05.414Z,62.35
2023-09-03T17:14:32.509Z,63.18
2023-09-03T17:16:59.431Z,63.29
2023-09-03T17:19:26.682Z,63.68
2023-09-03T17:21:53.414Z,62.86
2023-09-03T17:24:20.216Z,63.45
2023-09-03T17:26:47.393Z,63.48
2023-09-03T17:29:14.356Z,63.49
2023-09-03T17:31:41.173Z,63.81
2023-09-03T17:34:08.373Z,64.41
2023-09-03T17:36:35.908Z,64.93
2023-09-03T17:39:04.384Z,65.04
2023-09-03T17:41:31.734Z,65.40
2023-09-03T17:43:58.378Z,65.80
2023-09-03T17:46:25.260Z,65.45
2023-09-03T17:48:52.014Z,65.90
2023-09-03T17:51:18.922Z,65.89
2023-09-03T17:53:45.824Z,65.68
2023-09-03T17:58:40.316Z,65.98
2023-09-03T18:01:07.170Z,66.59
2023-09-03T18:03:34.166Z,66.77
2023-09-03T18:06:07.306Z,66.94
2023-09-03T18:08:34.075Z,67.78
2023-09-03T18:11:00.838Z,68.25
2023-09-03T18:13:27.648Z,68.73
2023-09-03T18:15:58.032Z,68.41
2023-09-03T18:18:25.155Z,68.97
2023-09-03T18:20:52.081Z,69.30
2023-09-03T18:23:18.850Z,69.20
2023-09-03T18:25:45.813Z,69.07
2023-09-03T18:28:12.850Z,68.90
2023-09-03T18:30:39.766Z,69.29
2023-09-03T18:33:06.760Z,69.84
2023-09-03T18:35:34.943Z,70.15
2023-09-03T18:38:02.000Z,70.70
2023-09-03T18:40:30.991Z,70.59
2023-09-03T18:43:00.825Z,71.24
2023-09-03T18:45:27.626Z,71.74
2023-09-03T18:47:54.444Z,71.69
2023-09-03T18:50:21.282Z,72.09
2023-09-03T18:52:48.217Z,72.26
2023-09-03T18:55:15.031Z,73.21
2023-09-03T18:57:41.899Z,73.19
2023-09-03T19:00:11.369Z,73.73
2023-09-03T19:02:38.268Z,74.31
2023-09-03T19:05:05.643Z,74.83
2023-09-03T19:07:33.001Z,74.47
2023-09-03T19:10:00.342Z,74.16
2023-09-03T19:12:27.203Z,74.77
2023-09-03T19:14:54.014Z,75.05
2023-09-03T19:17:20.738Z,75.35
2023-09-03T19:19:47.537Z,74.94
2023-09-03T19:22:16.922Z,74.82
2023-09-03T19:24:43.746Z,75.17
2023-09-03T19:27:12.476Z,75.03
2023-09-03T19:29:39.468Z,74.90
2023-09-03T19:32:06.432Z,75.08
2023-09-03T19:34:33.176Z,74.53
2023-09-03T19:36:59.923Z,74.80
2023-09-03T19:39:26.735Z,75.00
2023-09-03T19:41:55.282Z,75.05
2023-09-03T19:44:22.353Z,74.66
2023-09-03T19:46:51.276Z,75.00
2023-09-03T19:49:18.338Z,75.12
2023-09-03T19:51:45.141Z,74.64
2023-09-03T19:54:13.738Z,74.76
2023-09-03T19:56:40.758Z,74.35
2023-09-03T19:59:07.519Z,74.56
2023-09-03T20:01:34.367Z,75.10
2023-09-03T20:04:01.342Z,75.30
2023-09-03T20:06:28.361Z,74.97
2023-09-03T20:08:55.121Z,75.63
2023-09-03T20:11:22.228Z,75.52
2023-09-03T20:13:49.059Z,75.48
2023-09-03T20:16:15.792Z,75.26
2023-09-03T20:18:44.101Z,75.54
2023-09-03T20:21:13.629Z,75.63
2023-09-03T20:23:40.478Z,75.52
2023-09-03T20:26:08.763Z,76.20
2023-09-03T20:28:46.137Z,75.94
2023-09-03T20:31:15.951Z,76.60
2023-09-03T20:33:43.506Z,76.18
2023-09-03T20:36:10.673Z,76.69
2023-09-03T20:38:37.616Z,76.22
2023-09-03T20:41:05.415Z,76.08
2023-09-03T20:43:32.416Z,76.13
2023-09-03T20:46:00.282Z,76.15
2023-09-03T20:48:28.104Z,75.81
2023-09-03T20:50:58.905Z,76.18
2023-09-03T20:53:25.771Z,76.57
2023-09-03T20:55:54.518Z,76.68
2023-09-03T20:58:22.839Z,76.67
2023-09-03T21:00:50.219Z,77.10
2023-09-03T21:03:17.784Z,77.24
2023-09-03T21:05:50.849Z,77.21
2023-09-03T21:08:19.045Z,77.33
2023-09-03T21:10:55.608Z,77.42
2023-09-03T21:13:22.533Z,77.59
2023-09-03T21:15:50.460Z,77.86
2023-09-03T21:18:19.653Z,78.05
2023-09-03T21:20:47.033Z,78.86
2023-09-03T21:23:14.273Z,78.70
2023-09-03T21:25:42.438Z,79.04
2023-09-03T21:28:09.286Z,79.22
2023-09-03T21:30:36.171Z,79.22
2023-09-03T21:33:03.097Z,79.98
2023-09-03T21:35:29.899Z,80.01
2023-09-03T21:37:56.794Z,80.28
2023-09-03T21:40:23.653Z,80.45
2023-09-03T21:42:51.488Z,80.39
2023-09-03T21:45:18.546Z,80.58
2023-09-03T21:47:45.435Z,80.59
2023-09-03T21:50:12.306Z,81.03
2023-09-03T21:52:39.193Z,81.23
2023-09-03T21:55:06.551Z,81.63
2023-09-03T21:57:34.558Z,81.61
2023-09-03T22:00:02.014Z,81.87
2023-09-03T22:02:28.905Z,82.69
2023-09-03T22:04:59.670Z,82.72
2023-09-03T22:07:27.156Z,82.62
2023-09-03T22:09:54.249Z,82.62
2023-09-03T22:12:21.082Z,82.56
2023-09-03T22:14:48.015Z,82.92
2023-09-03T22:17:15.286Z,82.46
2023-09-03T22:19:42.115Z,83.18
2023-09-03T22:22:08.836Z,82.39
2023-09-03T22:24:35.756Z,82.23
2023-09-03T22:27:02.665Z,81.92
2023-09-03T22:29:29.878Z,82.60
2023-09-03T22:31:56.599Z,83.57
2023-09-03T22:34:24.971Z,84.15
2023-09-03T22:36:51.804Z,84.89
2023-09-03T22:39:18.781Z,85.44
2023-09-03T22:41:45.734Z,85.64
2023-09-03T22:44:12.577Z,86.13
2023-09-03T22:46:39.540Z,85.84
2023-09-03T22:49:06.880Z,85.94
2023-09-03T22:51:33.722Z,86.24
2023-09-03T22:54:00.568Z,86.07
2023-09-03T22:56:27.407Z,86.14
2023-09-03T22:58:54.190Z,86.23
2023-09-03T23:01:21.037Z,85.74
2023-09-03T23:03:48.023Z,85.97
2023-09-03T23:06:14.961Z,85.50
2023-09-03T23:08:41.765Z,85.87
2023-09-03T23:11:08.450Z,86.25
2023-09-03T23:13:35.252Z,85.45
2023-09-03T23:16:02.012Z,84.86
2023-09-03T23:18:29.673Z,84.53
2023-09-03T23:20:57.007Z,85.00
2023-09-03T23:23:23.799Z,85.94
2023-09-03T23:25:51.241Z,86.02
2023-09-03T23:28:18.172Z,85.09
2023-09-03T23:30:45.155Z,86.46
2023-09-03T23:33:12.068Z,87.23
2023-09-03T23:35:38.902Z,87.44
2023-09-03T23:38:05.744Z,87.46
2023-09-03T23:40:32.588Z,87.63
2023-09-03T23:42:59.387Z,87.59
2023-09-03T23:45:27.633Z,87.47
2023-09-03T23:47:54.474Z,87.49
2023-09-03T23:50:21.426Z,87.46
2023-09-03T23:52:48.331Z,87.60
2023-09-03T23:55:15.171Z,87.85
